sensor_id;sensor_type;location;lat;lon;timestamp;pressure;altitude;pressure_sealevel;temperature;humidity
44309;BME280;30022;55.846;37.340;2023-04-15T00:00:14;46416.75;;;-143.51;26.24
44309;BME280;30022;55.846;37.340;2023-04-15T00:02:41;46377.28;;;-143.51;26.55
44309;BME280;30022;55.846;37.340;2023-04-15T00:05:06;46393.06;;;-143.51;26.49
44309;BME280;30022;55.846;37.340;2023-04-15T00:07:32;46387.16;;;-143.51;26.41
44309;BME280;30022;55.846;37.340;2023-04-15T00:09:58;46377.28;;;-143.51;26.58
44309;BME280;30022;55.846;37.340;2023-04-15T00:12:24;46408.88;;;-143.51;26.67
44309;BME280;30022;55.846;37.340;2023-04-15T00:14:50;46383.19;;;-143.51;26.54
44309;BME280;30022;55.846;37.340;2023-04-15T00:17:16;46379.25;;;-143.51;26.86
44309;BME280;30022;55.846;37.340;2023-04-15T00:19:42;46397.03;;;-143.51;26.71
44309;BME280;30022;55.846;37.340;2023-04-15T00:22:09;46393.06;;;-143.51;26.71
44309;BME280;30022;55.846;37.340;2023-04-15T00:24:34;46393.06;;;-143.51;26.71
44309;BME280;30022;55.846;37.340;2023-04-15T00:27:00;46391.09;;;-143.51;26.65
44309;BME280;30022;55.846;37.340;2023-04-15T00:29:25;46377.28;;;-143.51;26.81
44309;BME280;30022;55.846;37.340;2023-04-15T00:31:51;46385.16;;;-143.51;26.92
44309;BME280;30022;55.846;37.340;2023-04-15T00:34:17;46397.03;;;-143.51;26.98
44309;BME280;30022;55.846;37.340;2023-04-15T00:36:42;46391.09;;;-143.51;26.83
44309;BME280;30022;55.846;37.340;2023-04-15T00:39:08;46387.16;;;-143.51;27.11
44309;BME280;30022;55.846;37.340;2023-04-15T00:41:34;46385.16;;;-143.51;27.20
44309;BME280;30022;55.846;37.340;2023-04-15T00:44:04;46377.28;;;-143.51;27.03
44309;BME280;30022;55.846;37.340;2023-04-15T00:46:29;46402.94;;;-143.51;26.94
44309;BME280;30022;55.846;37.340;2023-04-15T00:48:56;46424.66;;;-143.51;27.01
44309;BME280;30022;55.846;37.340;2023-04-15T00:51:22;46393.06;;;-143.51;27.16
44309;BME280;30022;55.846;37.340;2023-04-15T00:53:49;46408.88;;;-143.51;27.35
44309;BME280;30022;55.846;37.340;2023-04-15T00:56:16;46391.09;;;-143.51;27.21
44309;BME280;30022;55.846;37.340;2023-04-15T00:58:42;46391.09;;;-143.51;27.10
44309;BME280;30022;55.846;37.340;2023-04-15T01:01:07;46402.94;;;-143.51;27.06
44309;BME280;30022;55.846;37.340;2023-04-15T01:03:33;46379.25;;;-143.51;27.21
44309;BME280;30022;55.846;37.340;2023-04-15T01:05:59;46381.22;;;-143.51;27.47
44309;BME280;30022;55.846;37.340;2023-04-15T01:08:28;46399.00;;;-143.51;27.58
44309;BME280;30022;55.846;37.340;2023-04-15T01:10:57;46393.06;;;-143.51;27.34
44309;BME280;30022;55.846;37.340;2023-04-15T01:13:23;46395.03;;;-143.51;27.58
44309;BME280;30022;55.846;37.340;2023-04-15T01:15:50;46399.00;;;-143.51;27.27
44309;BME280;30022;55.846;37.340;2023-04-15T01:18:17;46363.44;;;-143.51;27.41
44309;BME280;30022;55.846;37.340;2023-04-15T01:20:42;46387.16;;;-143.51;27.56
44309;BME280;30022;55.846;37.340;2023-04-15T01:23:08;46383.19;;;-143.51;27.32
44309;BME280;30022;55.846;37.340;2023-04-15T01:25:34;46381.22;;;-143.51;27.51
44309;BME280;30022;55.846;37.340;2023-04-15T01:27:59;46391.09;;;-143.51;27.39
44309;BME280;30022;55.846;37.340;2023-04-15T01:30:25;46402.94;;;-143.51;27.42
44309;BME280;30022;55.846;37.340;2023-04-15T01:32:52;46385.16;;;-143.51;27.43
44309;BME280;30022;55.846;37.340;2023-04-15T01:35:37;46393.06;;;-143.51;27.44
44309;BME280;30022;55.846;37.340;2023-04-15T01:38:04;46365.41;;;-143.51;27.58
44309;BME280;30022;55.846;37.340;2023-04-15T01:40:30;46359.50;;;-143.51;27.43
44309;BME280;30022;55.846;37.340;2023-04-15T01:42:58;46365.41;;;-143.51;27.51
44309;BME280;30022;55.846;37.340;2023-04-15T01:45:25;46361.47;;;-143.51;27.68
44309;BME280;30022;55.846;37.340;2023-04-15T01:47:52;46377.28;;;-143.51;27.54
44309;BME280;30022;55.846;37.340;2023-04-15T01:50:19;46377.28;;;-143.51;27.56
44309;BME280;30022;55.846;37.340;2023-04-15T01:52:48;46385.16;;;-143.51;27.73
44309;BME280;30022;55.846;37.340;2023-04-15T01:55:16;46357.53;;;-143.51;27.69
44309;BME280;30022;55.846;37.340;2023-04-15T01:57:43;46373.31;;;-143.51;27.60
44309;BME280;30022;55.846;37.340;2023-04-15T02:00:10;46357.53;;;-143.51;27.66
44309;BME280;30022;55.846;37.340;2023-04-15T02:02:42;46361.47;;;-143.51;27.65
44309;BME280;30022;55.846;37.340;2023-04-15T02:05:10;46373.31;;;-143.51;27.59
44309;BME280;30022;55.846;37.340;2023-04-15T02:07:37;46383.19;;;-143.51;27.85
44309;BME280;30022;55.846;37.340;2023-04-15T02:10:04;46381.22;;;-143.51;27.80
44309;BME280;30022;55.846;37.340;2023-04-15T02:12:31;46359.50;;;-143.51;27.92
44309;BME280;30022;55.846;37.340;2023-04-15T02:14:58;46355.56;;;-143.51;27.75
44309;BME280;30022;55.846;37.340;2023-04-15T02:17:25;46333.81;;;-143.51;27.66
44309;BME280;30022;55.846;37.340;2023-04-15T02:19:52;46353.56;;;-143.51;27.77
44309;BME280;30022;55.846;37.340;2023-04-15T02:22:19;46365.41;;;-143.51;27.92
44309;BME280;30022;55.846;37.340;2023-04-15T02:24:46;46357.53;;;-143.51;27.78
44309;BME280;30022;55.846;37.340;2023-04-15T02:27:16;46351.59;;;-143.51;27.72
44309;BME280;30022;55.846;37.340;2023-04-15T02:29:44;46369.38;;;-143.51;27.92
44309;BME280;30022;55.846;37.340;2023-04-15T02:32:11;46357.53;;;-143.51;27.69
44309;BME280;30022;55.846;37.340;2023-04-15T02:34:39;46363.44;;;-143.51;27.98
44309;BME280;30022;55.846;37.340;2023-04-15T02:37:10;46357.53;;;-143.51;27.94
44309;BME280;30022;55.846;37.340;2023-04-15T02:39:37;46361.47;;;-143.51;28.00
44309;BME280;30022;55.846;37.340;2023-04-15T02:42:04;46355.56;;;-143.51;28.06
44309;BME280;30022;55.846;37.340;2023-04-15T02:44:32;46373.31;;;-143.51;27.98
44309;BME280;30022;55.846;37.340;2023-04-15T02:47:02;46357.53;;;-143.51;27.95
44309;BME280;30022;55.846;37.340;2023-04-15T02:49:31;46345.69;;;-143.51;28.14
44309;BME280;30022;55.846;37.340;2023-04-15T02:51:58;46343.69;;;-143.51;28.14
44309;BME280;30022;55.846;37.340;2023-04-15T02:54:26;46349.63;;;-143.51;28.18
44309;BME280;30022;55.846;37.340;2023-04-15T02:56:54;46373.31;;;-143.51;28.08
44309;BME280;30022;55.846;37.340;2023-04-15T02:59:21;46361.47;;;-143.51;28.14
44309;BME280;30022;55.846;37.340;2023-04-15T03:01:48;46349.63;;;-143.51;28.17
44309;BME280;30022;55.846;37.340;2023-04-15T03:04:15;46385.16;;;-143.51;28.16
44309;BME280;30022;55.846;37.340;2023-04-15T03:06:42;46365.41;;;-143.51;28.00
44309;BME280;30022;55.846;37.340;2023-04-15T03:09:17;46345.69;;;-143.51;27.96
44309;BME280;30022;55.846;37.340;2023-04-15T03:11:45;46351.59;;;-143.51;28.26
44309;BME280;30022;55.846;37.340;2023-04-15T03:14:12;46369.38;;;-143.51;28.00
44309;BME280;30022;55.846;37.340;2023-04-15T03:16:43;46359.50;;;-143.51;28.23
44309;BME280;30022;55.846;37.340;2023-04-15T03:19:09;46373.31;;;-143.51;28.29
44309;BME280;30022;55.846;37.340;2023-04-15T03:21:40;46373.31;;;-143.51;28.35
44309;BME280;30022;55.846;37.340;2023-04-15T03:24:08;46333.81;;;-143.51;28.29
44309;BME280;30022;55.846;37.340;2023-04-15T03:26:49;46361.47;;;-143.51;28.22
44309;BME280;30022;55.846;37.340;2023-04-15T03:29:20;46343.69;;;-143.51;28.37
44309;BME280;30022;55.846;37.340;2023-04-15T03:31:48;46387.16;;;-143.51;28.28
44309;BME280;30022;55.846;37.340;2023-04-15T03:34:16;46367.41;;;-143.51;28.42
44309;BME280;30022;55.846;37.340;2023-04-15T03:36:43;46355.56;;;-143.51;28.42
44309;BME280;30022;55.846;37.340;2023-04-15T03:39:10;46339.75;;;-143.51;28.26
44309;BME280;30022;55.846;37.340;2023-04-15T03:41:39;46365.41;;;-143.51;28.47
44309;BME280;30022;55.846;37.340;2023-04-15T03:44:06;46371.34;;;-143.51;28.46
44309;BME280;30022;55.846;37.340;2023-04-15T03:46:33;46347.66;;;-143.51;28.39
44309;BME280;30022;55.846;37.340;2023-04-15T03:49:00;46345.69;;;-143.51;28.14
44309;BME280;30022;55.846;37.340;2023-04-15T03:51:27;46357.53;;;-143.51;28.43
44309;BME280;30022;55.846;37.340;2023-04-15T03:53:55;46367.41;;;-143.51;28.43
44309;BME280;30022;55.846;37.340;2023-04-15T03:56:22;46367.41;;;-143.51;28.25
44309;BME280;30022;55.846;37.340;2023-04-15T03:58:49;46377.28;;;-143.51;28.22
44309;BME280;30022;55.846;37.340;2023-04-15T04:01:16;46371.34;;;-143.51;28.27
44309;BME280;30022;55.846;37.340;2023-04-15T04:03:43;46389.13;;;-143.51;28.12
44309;BME280;30022;55.846;37.340;2023-04-15T04:06:10;46357.53;;;-143.51;28.16
44309;BME280;30022;55.846;37.340;2023-04-15T04:08:38;46361.47;;;-143.51;28.15
44309;BME280;30022;55.846;37.340;2023-04-15T04:11:05;46377.28;;;-143.51;28.24
44309;BME280;30022;55.846;37.340;2023-04-15T04:13:32;46365.41;;;-143.51;28.42
44309;BME280;30022;55.846;37.340;2023-04-15T04:15:59;46361.47;;;-143.51;28.35
44309;BME280;30022;55.846;37.340;2023-04-15T04:18:26;46367.41;;;-143.51;28.06
44309;BME280;30022;55.846;37.340;2023-04-15T04:20:53;46375.28;;;-143.51;28.27
44309;BME280;30022;55.846;37.340;2023-04-15T04:23:20;46359.50;;;-143.51;28.22
44309;BME280;30022;55.846;37.340;2023-04-15T04:25:47;46359.50;;;-143.51;28.17
44309;BME280;30022;55.846;37.340;2023-04-15T04:28:14;46371.34;;;-143.51;28.22
44309;BME280;30022;55.846;37.340;2023-04-15T04:30:41;46377.28;;;-143.51;28.28
44309;BME280;30022;55.846;37.340;2023-04-15T04:33:07;46379.25;;;-143.51;28.17
44309;BME280;30022;55.846;37.340;2023-04-15T04:35:34;46373.31;;;-143.51;27.94
44309;BME280;30022;55.846;37.340;2023-04-15T04:38:03;46361.47;;;-143.51;28.00
44309;BME280;30022;55.846;37.340;2023-04-15T04:40:30;46355.56;;;-143.51;28.05
44309;BME280;30022;55.846;37.340;2023-04-15T04:42:57;46321.97;;;-143.51;28.24
44309;BME280;30022;55.846;37.340;2023-04-15T04:45:23;46355.56;;;-143.51;28.01
44309;BME280;30022;55.846;37.340;2023-04-15T04:47:50;46389.13;;;-143.51;28.11
44309;BME280;30022;55.846;37.340;2023-04-15T04:50:17;46387.16;;;-143.51;28.20
44309;BME280;30022;55.846;37.340;2023-04-15T04:52:44;46365.41;;;-143.51;27.90
44309;BME280;30022;55.846;37.340;2023-04-15T04:55:11;46389.13;;;-143.51;28.03
44309;BME280;30022;55.846;37.340;2023-04-15T04:57:38;46377.28;;;-143.51;28.14
44309;BME280;30022;55.846;37.340;2023-04-15T05:00:06;46393.06;;;-143.51;27.92
44309;BME280;30022;55.846;37.340;2023-04-15T05:02:34;46377.28;;;-143.51;28.11
44309;BME280;30022;55.846;37.340;2023-04-15T05:05:01;46402.94;;;-143.51;28.03
44309;BME280;30022;55.846;37.340;2023-04-15T05:07:28;46373.31;;;-143.51;27.96
44309;BME280;30022;55.846;37.340;2023-04-15T05:09:57;46357.53;;;-143.51;27.76
44309;BME280;30022;55.846;37.340;2023-04-15T05:12:46;46361.47;;;-143.51;27.81
44309;BME280;30022;55.846;37.340;2023-04-15T05:15:13;46371.34;;;-143.51;27.79
44309;BME280;30022;55.846;37.340;2023-04-15T05:17:40;46385.16;;;-143.51;27.85
44309;BME280;30022;55.846;37.340;2023-04-15T05:20:07;46365.41;;;-143.51;27.64
44309;BME280;30022;55.846;37.340;2023-04-15T05:22:35;46373.31;;;-143.51;27.72
44309;BME280;30022;55.846;37.340;2023-04-15T05:25:03;46377.28;;;-143.51;27.82
44309;BME280;30022;55.846;37.340;2023-04-15T05:27:31;46379.25;;;-143.51;27.73
44309;BME280;30022;55.846;37.340;2023-04-15T05:29:58;46373.31;;;-143.51;27.56
44309;BME280;30022;55.846;37.340;2023-04-15T05:32:25;46383.19;;;-143.51;27.64
44309;BME280;30022;55.846;37.340;2023-04-15T05:34:51;46373.31;;;-143.51;27.72
44309;BME280;30022;55.846;37.340;2023-04-15T05:37:18;46393.06;;;-143.51;27.68
44309;BME280;30022;55.846;37.340;2023-04-15T05:39:48;46377.28;;;-143.51;27.67
44309;BME280;30022;55.846;37.340;2023-04-15T05:42:15;46383.19;;;-143.51;27.63
44309;BME280;30022;55.846;37.340;2023-04-15T05:44:42;46391.09;;;-143.51;27.35
44309;BME280;30022;55.846;37.340;2023-04-15T05:47:10;46385.16;;;-143.51;27.54
44309;BME280;30022;55.846;37.340;2023-04-15T05:49:37;46385.16;;;-143.51;27.25
44309;BME280;30022;55.846;37.340;2023-04-15T05:52:04;46373.31;;;-143.51;27.32
44309;BME280;30022;55.846;37.340;2023-04-15T05:54:31;46397.03;;;-143.51;27.35
44309;BME280;30022;55.846;37.340;2023-04-15T05:56:58;46393.06;;;-143.51;27.39
44309;BME280;30022;55.846;37.340;2023-04-15T05:59:26;46377.28;;;-143.51;27.16
44309;BME280;30022;55.846;37.340;2023-04-15T06:02:01;46393.06;;;-143.51;27.14
44309;BME280;30022;55.846;37.340;2023-04-15T06:04:36;46395.03;;;-143.51;27.23
44309;BME280;30022;55.846;37.340;2023-04-15T06:07:03;46389.13;;;-143.51;27.10
44309;BME280;30022;55.846;37.340;2023-04-15T06:09:30;46395.03;;;-143.51;27.15
44309;BME280;30022;55.846;37.340;2023-04-15T06:11:57;46387.16;;;-143.51;27.03
44309;BME280;30022;55.846;37.340;2023-04-15T06:14:24;46404.91;;;-143.51;27.09
44309;BME280;30022;55.846;37.340;2023-04-15T06:16:51;46402.94;;;-143.51;27.27
44309;BME280;30022;55.846;37.340;2023-04-15T06:19:18;46385.16;;;-143.51;27.21
44309;BME280;30022;55.846;37.340;2023-04-15T06:21:45;46402.94;;;-143.51;27.17
44309;BME280;30022;55.846;37.340;2023-04-15T06:24:12;46365.41;;;-143.51;27.27
44309;BME280;30022;55.846;37.340;2023-04-15T06:26:39;46383.19;;;-143.51;27.17
44309;BME280;30022;55.846;37.340;2023-04-15T06:29:06;46385.16;;;-143.51;27.23
44309;BME280;30022;55.846;37.340;2023-04-15T06:31:33;46393.06;;;-143.51;26.90
44309;BME280;30022;55.846;37.340;2023-04-15T06:34:00;46395.03;;;-143.51;26.94
44309;BME280;30022;55.846;37.340;2023-04-15T06:36:28;46385.16;;;-143.51;26.74
44309;BME280;30022;55.846;37.340;2023-04-15T06:38:56;46381.22;;;-143.51;26.80
44309;BME280;30022;55.846;37.340;2023-04-15T06:41:26;46379.25;;;-143.51;26.75
44309;BME280;30022;55.846;37.340;2023-04-15T06:43:55;46373.31;;;-143.51;26.66
44309;BME280;30022;55.846;37.340;2023-04-15T06:46:23;46397.03;;;-143.51;26.73
44309;BME280;30022;55.846;37.340;2023-04-15T06:49:06;46408.88;;;-143.51;26.63
44309;BME280;30022;55.846;37.340;2023-04-15T06:54:38;46400.97;;;-143.51;26.66
44309;BME280;30022;55.846;37.340;2023-04-15T06:57:24;46391.09;;;-143.51;26.58
44309;BME280;30022;55.846;37.340;2023-04-15T06:59:51;46400.97;;;-143.51;26.33
44309;BME280;30022;55.846;37.340;2023-04-15T07:02:23;46383.19;;;-143.51;26.29
44309;BME280;30022;55.846;37.340;2023-04-15T07:04:53;46393.06;;;-143.51;26.39
44309;BME280;30022;55.846;37.340;2023-04-15T07:07:22;46389.13;;;-143.51;26.60
44309;BME280;30022;55.846;37.340;2023-04-15T07:09:48;46400.97;;;-143.51;26.59
44309;BME280;30022;55.846;37.340;2023-04-15T07:12:16;46379.25;;;-143.51;26.12
44309;BME280;30022;55.846;37.340;2023-04-15T07:14:43;46389.13;;;-143.51;25.91
44309;BME280;30022;55.846;37.340;2023-04-15T07:17:10;46412.81;;;-143.51;26.03
44309;BME280;30022;55.846;37.340;2023-04-15T07:19:37;46385.16;;;-143.51;25.90
44309;BME280;30022;55.846;37.340;2023-04-15T07:22:04;46395.03;;;-143.51;25.84
44309;BME280;30022;55.846;37.340;2023-04-15T07:24:34;46391.09;;;-143.51;25.72
44309;BME280;30022;55.846;37.340;2023-04-15T07:27:01;46420.72;;;-143.51;25.66
44309;BME280;30022;55.846;37.340;2023-04-15T07:29:30;46371.34;;;-143.51;25.21
44309;BME280;30022;55.846;37.340;2023-04-15T07:31:57;46385.16;;;-143.51;25.25
44309;BME280;30022;55.846;37.340;2023-04-15T07:34:26;46395.03;;;-143.51;25.42
44309;BME280;30022;55.846;37.340;2023-04-15T07:37:02;46404.91;;;-143.51;25.34
44309;BME280;30022;55.846;37.340;2023-04-15T07:39:29;46412.81;;;-143.51;25.44
44309;BME280;30022;55.846;37.340;2023-04-15T07:41:57;46399.00;;;-143.51;25.47
44309;BME280;30022;55.846;37.340;2023-04-15T07:44:25;46408.88;;;-143.51;25.64
44309;BME280;30022;55.846;37.340;2023-04-15T07:46:55;46410.84;;;-143.51;25.22
44309;BME280;30022;55.846;37.340;2023-04-15T07:49:22;46428.63;;;-143.51;25.15
44309;BME280;30022;55.846;37.340;2023-04-15T07:51:48;46420.72;;;-143.51;25.12
44309;BME280;30022;55.846;37.340;2023-04-15T07:54:16;46420.72;;;-143.51;24.70
44309;BME280;30022;55.846;37.340;2023-04-15T07:56:42;46404.91;;;-143.51;24.49
44309;BME280;30022;55.846;37.340;2023-04-15T07:59:09;46422.69;;;-143.51;24.86
44309;BME280;30022;55.846;37.340;2023-04-15T08:01:37;46420.72;;;-143.51;25.10
44309;BME280;30022;55.846;37.340;2023-04-15T08:04:04;46434.53;;;-143.51;24.71
44309;BME280;30022;55.846;37.340;2023-04-15T08:06:31;46434.53;;;-143.51;24.55
44309;BME280;30022;55.846;37.340;2023-04-15T08:08:58;46418.75;;;-143.51;24.38
44309;BME280;30022;55.846;37.340;2023-04-15T08:11:25;46430.59;;;-143.51;24.23
44309;BME280;30022;55.846;37.340;2023-04-15T08:13:53;46399.00;;;-143.51;24.19
44309;BME280;30022;55.846;37.340;2023-04-15T08:16:23;46412.81;;;-143.51;24.01
44309;BME280;30022;55.846;37.340;2023-04-15T08:18:51;46430.59;;;-143.51;23.72
44309;BME280;30022;55.846;37.340;2023-04-15T08:21:18;46426.63;;;-143.51;23.79
44309;BME280;30022;55.846;37.340;2023-04-15T08:23:46;46400.97;;;-143.51;23.91
44309;BME280;30022;55.846;37.340;2023-04-15T08:26:13;46418.75;;;-143.51;23.66
44309;BME280;30022;55.846;37.340;2023-04-15T08:28:40;46395.03;;;-143.51;23.62
44309;BME280;30022;55.846;37.340;2023-04-15T08:31:08;46432.56;;;-143.51;23.78
44309;BME280;30022;55.846;37.340;2023-04-15T08:33:38;46438.50;;;-143.51;23.51
44309;BME280;30022;55.846;37.340;2023-04-15T08:36:05;46397.03;;;-143.51;23.55
44309;BME280;30022;55.846;37.340;2023-04-15T08:38:33;46426.63;;;-143.51;23.52
44309;BME280;30022;55.846;37.340;2023-04-15T08:41:02;46414.78;;;-143.51;23.56
44309;BME280;30022;55.846;37.340;2023-04-15T08:43:32;46412.81;;;-143.51;23.57
44309;BME280;30022;55.846;37.340;2023-04-15T08:45:59;46412.81;;;-143.51;23.57
44309;BME280;30022;55.846;37.340;2023-04-15T08:48:28;46428.63;;;-143.51;23.63
44309;BME280;30022;55.846;37.340;2023-04-15T08:50:57;46436.50;;;-143.51;22.93
44309;BME280;30022;55.846;37.340;2023-04-15T08:53:28;46408.88;;;-143.51;22.98
44309;BME280;30022;55.846;37.340;2023-04-15T08:56:03;46418.75;;;-143.51;23.04
44309;BME280;30022;55.846;37.340;2023-04-15T08:58:31;46428.63;;;-143.51;22.83
44309;BME280;30022;55.846;37.340;2023-04-15T09:00:59;46422.69;;;-143.51;22.77
44309;BME280;30022;55.846;37.340;2023-04-15T09:03:28;46450.34;;;-143.51;22.99
44309;BME280;30022;55.846;37.340;2023-04-15T09:06:10;46432.56;;;-143.51;23.07
44309;BME280;30022;55.846;37.340;2023-04-15T09:08:37;46414.78;;;-143.51;22.98
44309;BME280;30022;55.846;37.340;2023-04-15T09:11:10;46438.50;;;-143.51;22.84
44309;BME280;30022;55.846;37.340;2023-04-15T09:13:43;46444.41;;;-143.51;23.00
44309;BME280;30022;55.846;37.340;2023-04-15T09:16:16;46458.22;;;-143.51;22.70
44309;BME280;30022;55.846;37.340;2023-04-15T09:18:46;46418.75;;;-143.51;22.58
44309;BME280;30022;55.846;37.340;2023-04-15T09:21:16;46458.22;;;-143.51;22.60
44309;BME280;30022;55.846;37.340;2023-04-15T09:26:51;46436.50;;;-143.51;22.24
44309;BME280;30022;55.846;37.340;2023-04-15T09:29:27;46412.81;;;-143.51;22.09
44309;BME280;30022;55.846;37.340;2023-04-15T09:31:54;46444.41;;;-143.51;22.84
44309;BME280;30022;55.846;37.340;2023-04-15T09:34:23;46420.72;;;-143.51;22.71
44309;BME280;30022;55.846;37.340;2023-04-15T09:37:03;46462.19;;;-143.51;22.19
44309;BME280;30022;55.846;37.340;2023-04-15T09:40:05;46428.63;;;-143.51;22.20
44309;BME280;30022;55.846;37.340;2023-04-15T09:42:25;46436.50;;;-143.51;22.47
44309;BME280;30022;55.846;37.340;2023-04-15T09:44:55;46468.09;;;-143.51;22.77
44309;BME280;30022;55.846;37.340;2023-04-15T09:47:29;46466.13;;;-143.51;22.24
44309;BME280;30022;55.846;37.340;2023-04-15T09:49:59;46464.16;;;-143.51;21.98
44309;BME280;30022;55.846;37.340;2023-04-15T09:52:29;46464.16;;;-143.51;21.84
44309;BME280;30022;55.846;37.340;2023-04-15T09:54:57;46483.91;;;-143.51;21.60
44309;BME280;30022;55.846;37.340;2023-04-15T09:57:31;46479.97;;;-143.51;22.00
44309;BME280;30022;55.846;37.340;2023-04-15T10:00:06;46450.34;;;-143.51;21.86
44309;BME280;30022;55.846;37.340;2023-04-15T10:02:39;46428.63;;;-143.51;22.00
44309;BME280;30022;55.846;37.340;2023-04-15T10:05:12;46479.97;;;-143.51;21.71
44309;BME280;30022;55.846;37.340;2023-04-15T10:07:43;46481.94;;;-143.51;21.46
44309;BME280;30022;55.846;37.340;2023-04-15T10:10:14;46489.84;;;-143.51;21.92
44309;BME280;30022;55.846;37.340;2023-04-15T10:12:43;46476.00;;;-143.51;21.96
44309;BME280;30022;55.846;37.340;2023-04-15T10:15:13;46511.56;;;-143.51;21.71
44309;BME280;30022;55.846;37.340;2023-04-15T10:17:43;46468.09;;;-143.51;21.58
44309;BME280;30022;55.846;37.340;2023-04-15T10:20:29;46476.00;;;-143.51;21.53
44309;BME280;30022;55.846;37.340;2023-04-15T10:23:03;46481.94;;;-143.51;21.44
44309;BME280;30022;55.846;37.340;2023-04-15T10:25:30;46483.91;;;-143.51;21.30
44309;BME280;30022;55.846;37.340;2023-04-15T10:28:00;46483.91;;;-143.51;21.61
44309;BME280;30022;55.846;37.340;2023-04-15T10:30:38;46466.13;;;-143.51;20.99
44309;BME280;30022;55.846;37.340;2023-04-15T10:33:21;46466.13;;;-143.51;21.23
44309;BME280;30022;55.846;37.340;2023-04-15T10:35:49;46483.91;;;-143.51;21.15
44309;BME280;30022;55.846;37.340;2023-04-15T10:38:33;46479.97;;;-143.51;21.18
44309;BME280;30022;55.846;37.340;2023-04-15T10:41:20;46497.72;;;-143.51;21.29
44309;BME280;30022;55.846;37.340;2023-04-15T10:43:53;46491.81;;;-143.51;21.22
44309;BME280;30022;55.846;37.340;2023-04-15T10:46:23;46503.66;;;-143.51;21.23
44309;BME280;30022;55.846;37.340;2023-04-15T10:48:52;46497.72;;;-143.51;20.87
44309;BME280;30022;55.846;37.340;2023-04-15T10:51:27;46476.00;;;-143.51;20.97
44309;BME280;30022;55.846;37.340;2023-04-15T10:53:56;46483.91;;;-143.51;21.14
44309;BME280;30022;55.846;37.340;2023-04-15T10:56:26;46497.72;;;-143.51;21.02
44309;BME280;30022;55.846;37.340;2023-04-15T10:58:54;46499.72;;;-143.51;21.05
44309;BME280;30022;55.846;37.340;2023-04-15T11:01:21;46497.72;;;-143.51;21.20
44309;BME280;30022;55.846;37.340;2023-04-15T11:03:51;46499.72;;;-143.51;20.93
44309;BME280;30022;55.846;37.340;2023-04-15T11:06:18;46491.81;;;-143.51;20.94
44309;BME280;30022;55.846;37.340;2023-04-15T11:08:56;46491.81;;;-143.51;20.58
44309;BME280;30022;55.846;37.340;2023-04-15T11:14:15;46495.75;;;-143.51;20.11
44309;BME280;30022;55.846;37.340;2023-04-15T11:16:42;46495.75;;;-143.51;19.88
44309;BME280;30022;55.846;37.340;2023-04-15T11:19:10;46479.97;;;-143.51;20.23
44309;BME280;30022;55.846;37.340;2023-04-15T11:21:37;46483.91;;;-143.51;20.55
44309;BME280;30022;55.846;37.340;2023-04-15T11:24:04;46495.75;;;-143.51;20.64
44309;BME280;30022;55.846;37.340;2023-04-15T11:26:30;46507.59;;;-143.51;20.66
44309;BME280;30022;55.846;37.340;2023-04-15T11:28:57;46509.56;;;-143.51;20.64
44309;BME280;30022;55.846;37.340;2023-04-15T11:31:25;46509.56;;;-143.51;20.63
44309;BME280;30022;55.846;37.340;2023-04-15T11:33:54;46507.59;;;-143.51;20.43
44309;BME280;30022;55.846;37.340;2023-04-15T11:36:26;46495.75;;;-143.51;20.27
44309;BME280;30022;55.846;37.340;2023-04-15T11:39:13;46474.03;;;-143.51;20.27
44309;BME280;30022;55.846;37.340;2023-04-15T11:41:42;46485.88;;;-143.51;20.62
44309;BME280;30022;55.846;37.340;2023-04-15T11:44:16;46495.75;;;-143.51;20.36
44309;BME280;30022;55.846;37.340;2023-04-15T11:46:44;46489.84;;;-143.51;20.52
44309;BME280;30022;55.846;37.340;2023-04-15T11:49:27;46468.09;;;-143.51;20.42
44309;BME280;30022;55.846;37.340;2023-04-15T11:51:55;46485.88;;;-143.51;20.35
44309;BME280;30022;55.846;37.340;2023-04-15T11:54:20;46505.63;;;-143.51;20.34
44309;BME280;30022;55.846;37.340;2023-04-15T11:56:50;46495.75;;;-143.51;20.25
44309;BME280;30022;55.846;37.340;2023-04-15T11:59:16;46479.97;;;-143.51;20.17
44309;BME280;30022;55.846;37.340;2023-04-15T12:01:42;46495.75;;;-143.51;20.36
44309;BME280;30022;55.846;37.340;2023-04-15T12:04:14;46487.84;;;-143.51;20.02
44309;BME280;30022;55.846;37.340;2023-04-15T12:06:41;46493.78;;;-143.51;20.43
44309;BME280;30022;55.846;37.340;2023-04-15T12:11:44;46503.66;;;-143.51;20.12
44309;BME280;30022;55.846;37.340;2023-04-15T12:16:47;46525.38;;;-143.51;20.29
44309;BME280;30022;55.846;37.340;2023-04-15T12:19:14;46501.69;;;-143.51;20.42
44309;BME280;30022;55.846;37.340;2023-04-15T12:21:43;46503.66;;;-143.51;20.42
44309;BME280;30022;55.846;37.340;2023-04-15T12:24:09;46511.56;;;-143.51;20.46
44309;BME280;30022;55.846;37.340;2023-04-15T12:26:37;46507.59;;;-143.51;20.41
44309;BME280;30022;55.846;37.340;2023-04-15T12:29:04;46505.63;;;-143.51;19.91
44309;BME280;30022;55.846;37.340;2023-04-15T12:31:31;46499.72;;;-143.51;20.11
44309;BME280;30022;55.846;37.340;2023-04-15T12:33:58;46495.75;;;-143.51;20.17
44309;BME280;30022;55.846;37.340;2023-04-15T12:36:26;46513.53;;;-143.51;20.18
44309;BME280;30022;55.846;37.340;2023-04-15T12:38:53;46503.66;;;-143.51;20.01
44309;BME280;30022;55.846;37.340;2023-04-15T12:41:19;46479.97;;;-143.51;20.43
44309;BME280;30022;55.846;37.340;2023-04-15T12:43:46;46495.75;;;-143.51;20.34
44309;BME280;30022;55.846;37.340;2023-04-15T12:46:15;46507.59;;;-143.51;20.31
44309;BME280;30022;55.846;37.340;2023-04-15T12:48:42;46513.53;;;-143.51;20.30
44309;BME280;30022;55.846;37.340;2023-04-15T12:51:13;46511.56;;;-143.51;20.48